Ionia, MI

3:26 AM EST on November 18, 2019 (GMT -0500)
Ionia

Weather History for KY70 - September, 2019

Change the Weather History Date:

Saturday, September 14, 2019

  Actual Average (KGRR) Record (KGRR)
Temperature  
Mean Temperature 64 °F -  
Max Temperature 73 °F 72 °F 95 °F (1939)
Min Temperature 56 °F 51 °F 31 °F (1899)
Growing Degree Days 14 (Base 50)    
Moisture  
Dew Point 54 °F    
Average Humidity 70    
Maximum Humidity 94    
Minimum Humidity 46    
Precipitation  
Precipitation 0.00 in - - ()
Sea Level Pressure  
Sea Level Pressure 30.15 in    
Wind  
Wind Speed 8 mph ()    
Max Wind Speed 18 mph    
Max Gust Speed 23 mph    
Visibility 10.0 miles    
Events      
Averages and records for this station are not official NWS values.
T = Trace of Precipitation, MM = Missing Value Source: Averaged Metar Reports

Daily Weather History Graph

Daily Weather History Graph

Search for Another Location

Airport or City:

Astronomy

Sep. 14, 2019 Rise Set
Actual Time 7:18 AM EDT 7:52 PM EDT
Civil Twilight 6:50 AM EDT 8:20 PM EDT
Nautical Twilight 6:16 AM EDT 8:54 PM EDT
Astronomical Twilight 5:41 AM EDT 9:29 PM EDT
Moon 8:33 PM EDT (9/14) 7:30 AM EDT (9/14)
Length of Visible Light 13h 30m
Length of Day
12h 33m
Full, 100% of the Moon is Illuminated
Sep 14
Full
Sep 21
Last Quarter
Sep 28
New
Oct 5
First Quarter
Oct 13
Full

Hourly Weather History & Observations

Time (EDT) Temp. Dew Point Humidity Pressure Visibility Wind Dir Wind Speed Gust Speed Precip Events Conditions
12:15 AM 63.7 °F 52.0 °F 66% 30.08 in 10.0 mi West 11.5 mph - N/A   Scattered Clouds
12:55 AM 61.3 °F 52.7 °F 73% 30.09 in 10.0 mi WSW 9.2 mph - N/A   Scattered Clouds
1:18 AM 60.3 °F 53.1 °F 77% 30.09 in 10.0 mi SW 8.1 mph - N/A   Scattered Clouds
1:36 AM 59.9 °F 53.1 °F 78% 30.09 in 10.0 mi WSW 8.1 mph - N/A   Clear
1:55 AM 59.0 °F 52.9 °F 80% 30.09 in 10.0 mi WSW 8.1 mph - N/A   Clear
2:15 AM 60.3 °F 53.6 °F 79% 30.09 in 10.0 mi WSW 6.9 mph - N/A   Mostly Cloudy
2:39 AM 61.3 °F 53.4 °F 75% 30.09 in 10.0 mi SW 8.1 mph - N/A   Overcast
2:57 AM 61.9 °F 53.4 °F 74% 30.08 in 10.0 mi SW 8.1 mph - N/A   Overcast
3:15 AM 62.1 °F 53.4 °F 73% 30.08 in 10.0 mi WSW 10.4 mph 17.3 mph N/A   Overcast
3:35 AM 62.2 °F 53.8 °F 74% 30.08 in 10.0 mi WSW 8.1 mph - N/A   Overcast
3:36 AM 62.2 °F 53.8 °F 74% 30.08 in 10.0 mi WSW 8.1 mph - N/A   Overcast
3:55 AM 61.7 °F 54.0 °F 76% 30.09 in 10.0 mi SW 6.9 mph - N/A   Overcast
4:00 AM 61.7 °F 54.0 °F 76% 30.09 in 10.0 mi WSW 6.9 mph - N/A   Overcast
4:18 AM 60.8 °F 54.1 °F 79% 30.09 in 10.0 mi WSW 8.1 mph - N/A   Overcast
4:36 AM 59.9 °F 54.3 °F 82% 30.09 in 10.0 mi WSW 8.1 mph - N/A   Scattered Clouds
4:55 AM 59.0 °F 54.7 °F 86% 30.09 in 10.0 mi SW 6.9 mph - N/A   Clear
4:56 AM 59.0 °F 54.7 °F 86% 30.09 in 10.0 mi SW 6.9 mph - N/A   Clear
5:15 AM 58.5 °F 54.5 °F 87% 30.10 in 10.0 mi SW 8.1 mph - N/A   Clear
5:16 AM 58.5 °F 54.5 °F 87% 30.10 in 10.0 mi SW 8.1 mph - N/A   Clear
5:39 AM 58.1 °F 54.7 °F 88% 30.10 in 10.0 mi SW 6.9 mph - N/A   Clear
5:57 AM 58.1 °F 55.0 °F 90% 30.11 in 10.0 mi SW 6.9 mph - N/A   Clear
6:15 AM 57.9 °F 54.9 °F 90% 30.12 in 10.0 mi SW 8.1 mph - N/A   Clear
6:35 AM 57.2 °F 54.3 °F 90% 30.12 in 10.0 mi WSW 6.9 mph - N/A   Clear
6:55 AM 56.5 °F 53.8 °F 91% 30.13 in 10.0 mi WSW 6.9 mph - N/A   Scattered Clouds
7:18 AM 58.1 °F 55.4 °F 91% 30.15 in 10.0 mi SW 6.9 mph - N/A   Overcast
7:36 AM 59.0 °F 55.8 °F 89% 30.16 in 10.0 mi WSW 6.9 mph - N/A   Overcast
7:55 AM 59.0 °F 55.6 °F 88% 30.16 in 10.0 mi WSW 6.9 mph - N/A   Overcast
7:56 AM 59.0 °F 55.6 °F 88% 30.16 in 10.0 mi SW 6.9 mph - N/A   Mostly Cloudy
8:15 AM 59.4 °F 55.6 °F 87% 30.17 in 10.0 mi WSW 5.8 mph - N/A   Scattered Clouds
8:39 AM 60.4 °F 55.6 °F 84% 30.17 in 10.0 mi SW 6.9 mph - N/A   Clear
8:57 AM 61.7 °F 55.6 °F 80% 30.18 in 10.0 mi WSW 5.8 mph - N/A   Clear
9:15 AM 62.6 °F 52.9 °F 70% 30.19 in 10.0 mi West 8.1 mph - N/A   Clear
9:16 AM 62.6 °F 52.9 °F 70% 30.19 in 10.0 mi West 9.2 mph - N/A   Clear
9:35 AM 63.9 °F 53.1 °F 68% 30.19 in 10.0 mi West 6.9 mph - N/A   Clear
9:55 AM 64.6 °F 51.6 °F 63% 30.20 in 10.0 mi WNW 10.4 mph - N/A   Clear
10:18 AM 65.8 °F 52.2 °F 61% 30.20 in 10.0 mi WSW 9.2 mph 16.1 mph N/A   Scattered Clouds
10:55 AM 65.3 °F 51.6 °F 61% 30.20 in 10.0 mi West 11.5 mph - N/A   Scattered Clouds
10:56 AM 65.5 °F 51.6 °F 61% 30.20 in 10.0 mi West 10.4 mph - N/A   Scattered Clouds
11:15 AM 67.5 °F 51.3 °F 56% 30.20 in 10.0 mi WSW 15.0 mph 19.6 mph N/A   Mostly Cloudy
11:39 AM 68.9 °F 51.8 °F 54% 30.20 in 10.0 mi West 10.4 mph 17.3 mph N/A   Overcast
11:56 AM 69.4 °F 52.2 °F 54% 30.20 in 10.0 mi WSW 15.0 mph - N/A   Mostly Cloudy
12:16 PM 69.8 °F 51.1 °F 51% 30.19 in 10.0 mi West 10.4 mph - N/A   Scattered Clouds
12:35 PM 70.9 °F 53.2 °F 54% 30.19 in 10.0 mi SW 9.2 mph 17.3 mph N/A   Scattered Clouds
12:55 PM 70.7 °F 52.3 °F 52% 30.19 in 10.0 mi WSW 11.5 mph 16.1 mph N/A   Mostly Cloudy
1:18 PM 71.1 °F 53.4 °F 54% 30.19 in 10.0 mi SW 10.4 mph 17.3 mph N/A   Scattered Clouds
1:35 PM 72.0 °F 52.0 °F 49% 30.19 in 10.0 mi West 11.5 mph 18.4 mph N/A   Scattered Clouds
1:55 PM 71.8 °F 51.6 °F 49% 30.19 in 10.0 mi SW 12.7 mph 17.3 mph N/A   Clear
1:56 PM 72.0 °F 51.8 °F 49% 30.19 in 10.0 mi WSW 12.7 mph 17.3 mph N/A   Clear
2:15 PM 72.3 °F 52.0 °F 49% 30.17 in 10.0 mi SW 15.0 mph - N/A   Scattered Clouds
2:16 PM 72.3 °F 52.2 °F 49% 30.17 in 10.0 mi SW 15.0 mph - N/A   Scattered Clouds
2:39 PM 71.6 °F 52.2 °F 50% 30.17 in 10.0 mi SW 11.5 mph 17.3 mph N/A   Scattered Clouds
2:57 PM 72.7 °F 51.8 °F 48% 30.16 in 10.0 mi WSW 15.0 mph 19.6 mph N/A   Scattered Clouds
3:15 PM 72.5 °F 51.4 °F 47% 30.15 in 10.0 mi West 12.7 mph 16.1 mph N/A   Clear
3:35 PM 73.0 °F 53.2 °F 50% 30.16 in 10.0 mi SW 11.5 mph 23.0 mph N/A   Scattered Clouds
3:55 PM 73.2 °F 51.8 °F 47% 30.16 in 10.0 mi WSW 18.4 mph 21.9 mph N/A   Clear
4:18 PM 73.2 °F 51.3 °F 46% 30.16 in 10.0 mi WSW 15.0 mph 20.7 mph N/A   Clear
4:36 PM 73.0 °F 51.4 °F 47% 30.16 in 10.0 mi SW 9.2 mph 19.6 mph N/A   Clear
4:55 PM 73.0 °F 51.3 °F 46% 30.15 in 10.0 mi West 15.0 mph 21.9 mph N/A   Clear
4:56 PM 72.9 °F 50.9 °F 46% 30.15 in 10.0 mi West 12.7 mph 21.9 mph N/A   Clear
5:15 PM 72.5 °F 52.0 °F 48% 30.15 in 10.0 mi WSW 13.8 mph - N/A   Clear
5:16 PM 72.5 °F 52.0 °F 48% 30.15 in 10.0 mi WSW 13.8 mph - N/A   Clear
5:39 PM 72.0 °F 52.5 °F 50% 30.15 in 10.0 mi WSW 13.8 mph 18.4 mph N/A   Clear
5:57 PM 71.8 °F 52.3 °F 50% 30.15 in 10.0 mi WSW 15.0 mph - N/A   Clear
6:15 PM 71.4 °F 52.5 °F 51% 30.15 in 10.0 mi WSW 13.8 mph 18.4 mph N/A   Clear
6:16 PM 71.4 °F 52.3 °F 51% 30.15 in 10.0 mi WSW 15.0 mph 18.4 mph N/A   Clear
6:35 PM 70.7 °F 52.7 °F 53% 30.15 in 10.0 mi WSW 10.4 mph 16.1 mph N/A   Clear
6:55 PM 70.0 °F 53.6 °F 56% 30.15 in 10.0 mi WSW 12.7 mph - N/A   Clear
7:00 PM 69.8 °F 53.6 °F 56% 30.15 in 10.0 mi West 9.2 mph - N/A   Clear
7:18 PM 68.2 °F 54.9 °F 62% 30.15 in 10.0 mi WSW 5.8 mph - N/A   Clear
7:36 PM 67.1 °F 54.3 °F 63% 30.15 in 10.0 mi West 6.9 mph - N/A   Clear
7:55 PM 65.1 °F 54.5 °F 68% 30.16 in 10.0 mi WSW 4.6 mph - N/A   Clear
8:15 PM 64.0 °F 54.5 °F 71% 30.16 in 10.0 mi WSW 3.5 mph - N/A   Clear
8:20 PM 63.9 °F 54.7 °F 72% 30.15 in 10.0 mi SW 3.5 mph - N/A   Clear
8:38 PM 62.1 °F 55.2 °F 78% 30.15 in 10.0 mi Calm Calm - N/A   Clear
8:56 PM 60.3 °F 55.9 °F 86% 30.15 in 10.0 mi Calm Calm - N/A   Clear
9:15 PM 60.1 °F 56.5 °F 88% 30.15 in 10.0 mi Calm Calm - N/A   Clear
9:35 PM 59.7 °F 56.3 °F 88% 30.15 in 10.0 mi South 3.5 mph - N/A   Clear
9:59 PM 58.8 °F 56.1 °F 91% 30.15 in 10.0 mi Calm Calm - N/A   Scattered Clouds
10:17 PM 59.9 °F 56.3 °F 88% 30.15 in 10.0 mi Calm Calm - N/A   Scattered Clouds
10:35 PM 58.8 °F 55.8 °F 90% 30.16 in 10.0 mi Calm Calm - N/A   Scattered Clouds
10:36 PM 58.6 °F 55.8 °F 90% 30.16 in 10.0 mi SSE 3.5 mph - N/A   Scattered Clouds
10:55 PM 57.4 °F 55.4 °F 93% 30.15 in 10.0 mi SSE 3.5 mph - N/A   Clear
11:15 PM 57.7 °F 55.4 °F 92% 30.16 in 10.0 mi SSE 3.5 mph - N/A   Clear
11:38 PM 59.0 °F 57.2 °F 94% 30.16 in 10.0 mi SE 4.6 mph - N/A   Scattered Clouds
11:56 PM 59.5 °F 57.2 °F 92% 30.16 in 10.0 mi SSE 3.5 mph - N/A   Mostly Cloudy